CheckWX is a tool to help pilots better visualize weather data.  It is not intended as a substitute for an official pre-flight weather briefing.

04:09:04 UTC

LLBG TAF
Ben Gurion International Airport
Tel Aviv, Israel
TAF LLBG 232302Z 2400/2424 02006KT CAVOK TEMPO 2400/2406 VRB03KT BECMG 2407/2409 34013KT BECMG 2415/2418 02006KT TX27/2411Z TN11/2403Z

Apr-24@
00:00 UTC

Apr-24 @ 00:00 UTC

Apr-24@
07:00 UTC

Apr-24 @ 07:00 UTC

TAF LLBG 232302Z 2400/2424 02006KT CAVOK
Wind
  • 020° at 6 KTS
Conditions
No significant weather
Cloud Levels
  • No significant clouds

Apr-24@
00:00 UTC

Apr-24 @ 00:00 UTC

Apr-24@
06:00 UTC

Apr-24 @ 06:00 UTC

TEMPO 2400/2406 VRB03KT

Temporary

Temporary Changes expected for less than half the time period

Wind
  • Variable at 3 KTS

Apr-24@
07:00 UTC

Apr-24 @ 07:00 UTC

Apr-24@
15:00 UTC

Apr-24 @ 15:00 UTC

BECMG 2407/2409 34013KT

Becoming

Becoming Conditions expected by Wed, Apr 24, 2019 @ 09:00 UTC

Wind
  • 340° at 13 KTS
Conditions
No significant weather
Cloud Levels
  • No significant clouds

Apr-24@
15:00 UTC

Apr-24 @ 15:00 UTC

Apr-25@
00:00 UTC

Apr-25 @ 00:00 UTC

BECMG 2415/2418 02006KT TX27/2411Z TN11/2403Z

Becoming

Becoming Conditions expected by Wed, Apr 24, 2019 @ 18:00 UTC

Wind
  • 020° at 6 KTS
Conditions
No significant weather
Cloud Levels
  • No significant clouds